Time;durP1;ratioP1;P1;durP2;ratioP2;P2;SDS_P1;SDS_P2;PMS_P1;PMS_P2;Temp;Humidity;BMP_temperature;BMP_pressure;BME280_temperature;BME280_humidity;BME280_pressure;Samples;Min_cycle;Max_cycle;Signal;HPM_P1;HPM_P2
2020/12/03 00:00:45;;;;;;;66.68;34.75;;;3.20;99.90;;;;;;5035122;28;20052;-61
2020/12/03 00:03:33;;;;;;;63.15;33.85;;;3.20;99.90;;;;;;5031524;28;20069;-61
2020/12/03 00:06:20;;;;;;;60.33;33.17;;;3.20;99.90;;;;;;5030563;28;20542;-62
2020/12/03 00:08:52;;;;;;;62.15;31.77;;;3.20;99.90;;;;;;5034691;28;20032;-61
2020/12/03 00:11:21;;;;;;;65.22;33.78;;;3.20;99.90;;;;;;5016519;28;20028;-61
2020/12/03 00:13:47;;;;;;;61.10;32.35;;;3.20;99.90;;;;;;5013602;28;20028;-61
2020/12/03 00:16:14;;;;;;;58.72;33.47;;;3.20;99.90;;;;;;5034213;28;20032;-61
2020/12/03 00:18:40;;;;;;;62.95;32.78;;;3.10;99.90;;;;;;5033203;28;20858;-61
2020/12/03 00:21:09;;;;;;;61.53;33.15;;;3.10;99.90;;;;;;5033088;28;20172;-62
2020/12/03 00:23:37;;;;;;;56.00;29.60;;;3.20;99.90;;;;;;5031889;28;20025;-61
2020/12/03 00:26:04;;;;;;;59.10;31.80;;;3.20;99.90;;;;;;5032084;28;20576;-61
2020/12/03 00:28:33;;;;;;;57.38;31.70;;;3.20;99.90;;;;;;5031487;28;20388;-61
2020/12/03 00:31:00;;;;;;;59.08;31.73;;;3.20;99.90;;;;;;5018061;28;20036;-61
2020/12/03 00:33:27;;;;;;;56.05;30.10;;;3.20;99.90;;;;;;5032400;28;20025;-62
2020/12/03 00:35:53;;;;;;;55.00;30.10;;;3.20;99.90;;;;;;5033757;28;20037;-62
2020/12/03 00:38:21;;;;;;;56.95;30.70;;;3.20;99.90;;;;;;5032511;28;20041;-62
2020/12/03 00:40:48;;;;;;;58.97;30.13;;;3.20;99.90;;;;;;5033708;28;20503;-61
2020/12/03 00:43:16;;;;;;;56.55;30.08;;;3.20;99.90;;;;;;5033240;28;20044;-61
2020/12/03 00:45:46;;;;;;;58.03;30.65;;;3.20;99.90;;;;;;5035196;28;20475;-61
2020/12/03 00:48:12;;;;;;;51.35;29.85;;;3.20;99.90;;;;;;5030167;28;20029;-61
2020/12/03 00:50:38;;;;;;;60.47;30.70;;;3.20;99.90;;;;;;5032758;28;20029;-61
2020/12/03 00:53:04;;;;;;;60.15;32.35;;;3.20;99.90;;;;;;5033636;28;20079;-62
2020/12/03 00:55:30;;;;;;;54.20;28.77;;;3.10;99.90;;;;;;5035811;28;20490;-62
2020/12/03 00:57:56;;;;;;;57.80;30.98;;;3.20;99.90;;;;;;5035259;28;20029;-62
2020/12/03 01:00:22;;;;;;;59.20;31.25;;;3.10;99.90;;;;;;5037490;28;20502;-61
2020/12/03 01:02:48;;;;;;;63.45;32.60;;;3.10;99.90;;;;;;5037674;28;20028;-62
2020/12/03 01:05:15;;;;;;;60.05;33.40;;;3.10;99.90;;;;;;5035079;28;20048;-62
2020/12/03 01:07:41;;;;;;;64.30;31.63;;;3.10;99.90;;;;;;5036294;28;20102;-61
2020/12/03 01:10:16;;;;;;;51.97;28.05;;;3.00;99.90;;;;;;5035370;28;20504;-61
2020/12/03 01:12:42;;;;;;;60.67;30.55;;;3.00;99.90;;;;;;5037538;28;20850;-62
2020/12/03 01:15:09;;;;;;;67.75;31.95;;;3.00;99.90;;;;;;5033080;28;20316;-61
2020/12/03 01:17:34;;;;;;;63.55;32.08;;;3.00;99.90;;;;;;5036881;28;20551;-61
2020/12/03 01:20:00;;;;;;;60.90;30.42;;;3.10;99.90;;;;;;5033105;28;20041;-62
2020/12/03 01:22:26;;;;;;;60.47;31.92;;;3.00;99.90;;;;;;5036780;28;20033;-61
2020/12/03 01:24:52;;;;;;;63.00;32.70;;;3.00;99.90;;;;;;5038044;28;20488;-62
2020/12/03 01:27:18;;;;;;;60.58;30.88;;;3.00;99.90;;;;;;5035426;28;20117;-62
2020/12/03 01:29:45;;;;;;;67.57;32.72;;;3.00;99.90;;;;;;5034444;28;20471;-61
2020/12/03 01:32:11;;;;;;;57.53;31.73;;;3.00;99.90;;;;;;5035844;28;21864;-62
2020/12/03 01:34:36;;;;;;;62.42;31.58;;;3.00;99.90;;;;;;5035213;28;20140;-61
2020/12/03 01:37:02;;;;;;;63.80;31.58;;;3.00;99.90;;;;;;5035113;28;20049;-62
2020/12/03 01:39:28;;;;;;;72.25;34.78;;;3.00;99.90;;;;;;5039004;28;20807;-61
2020/12/03 01:41:54;;;;;;;69.97;32.42;;;2.90;99.90;;;;;;5034778;28;20029;-61
2020/12/03 01:44:48;;;;;;;63.20;31.25;;;2.90;99.90;;;;;;5036395;28;20116;-62
2020/12/03 01:47:23;;;;;;;65.90;35.05;;;2.90;99.90;;;;;;5034643;28;20040;-62
2020/12/03 01:49:49;;;;;;;64.15;33.13;;;2.90;99.90;;;;;;5027658;28;20090;-62
2020/12/03 01:52:16;;;;;;;68.60;34.35;;;2.90;99.90;;;;;;5031673;28;20163;-61
2020/12/03 01:54:42;;;;;;;68.05;33.78;;;2.90;99.90;;;;;;5031253;28;20036;-61
2020/12/03 01:57:36;;;;;;;62.67;32.35;;;2.90;99.90;;;;;;5035623;28;20039;-62
2020/12/03 02:00:15;;;;;;;71.47;35.47;;;2.90;99.90;;;;;;5036494;28;20599;-62
2020/12/03 02:02:50;;;;;;;66.60;32.77;;;2.90;99.90;;;;;;5035350;28;20041;-62
2020/12/03 02:05:29;;;;;;;66.30;33.50;;;2.90;99.90;;;;;;5032683;28;20623;-62
2020/12/03 02:07:55;;;;;;;72.17;35.47;;;2.90;99.90;;;;;;5032377;28;20037;-62
2020/12/03 02:10:25;;;;;;;73.60;35.47;;;2.90;99.90;;;;;;5000857;28;20037;-62
2020/12/03 02:12:51;;;;;;;68.25;33.42;;;2.90;99.90;;;;;;5037469;28;20467;-62
2020/12/03 02:15:20;;;;;;;68.45;35.60;;;3.00;99.90;;;;;;5030563;28;20037;-62
2020/12/03 02:17:46;;;;;;;66.30;33.60;;;2.90;99.90;;;;;;5033600;28;20059;-61
2020/12/03 02:20:18;;;;;;;65.80;33.58;;;2.90;99.90;;;;;;5034099;28;20591;-61
2020/12/03 02:22:44;;;;;;;69.63;35.13;;;2.90;99.90;;;;;;5033282;28;20033;-61
2020/12/03 02:25:11;;;;;;;64.72;34.08;;;2.90;99.90;;;;;;5018853;28;20041;-62
2020/12/03 02:27:39;;;;;;;71.55;37.17;;;2.90;99.90;;;;;;5033882;28;20148;-61
2020/12/03 02:30:07;;;;;;;67.82;34.92;;;2.90;99.90;;;;;;5035283;28;20486;-62
2020/12/03 02:32:34;;;;;;;74.90;34.13;;;2.90;99.90;;;;;;5018710;28;20029;-61
2020/12/03 02:35:00;;;;;;;73.47;33.72;;;2.90;99.90;;;;;;5031470;28;20116;-61
2020/12/03 02:37:29;;;;;;;77.65;37.33;;;3.00;99.90;;;;;;5033603;28;20045;-61
2020/12/03 02:39:55;;;;;;;65.43;32.87;;;2.90;99.90;;;;;;5034066;28;20071;-61
2020/12/03 02:42:22;;;;;;;72.93;37.35;;;2.90;99.90;;;;;;5034914;28;20575;-62
2020/12/03 02:44:48;;;;;;;71.50;34.47;;;2.90;99.90;;;;;;5033196;28;20134;-61
2020/12/03 02:47:17;;;;;;;73.88;35.88;;;3.00;99.90;;;;;;5033163;28;20492;-61
2020/12/03 02:49:43;;;;;;;85.45;37.25;;;2.90;99.90;;;;;;5035146;28;20039;-61
2020/12/03 02:52:14;;;;;;;74.50;34.97;;;2.90;99.90;;;;;;5032953;28;20494;-61
2020/12/03 02:54:41;;;;;;;84.18;38.20;;;2.90;99.90;;;;;;5032231;28;20025;-61
2020/12/03 02:57:07;;;;;;;79.07;39.25;;;2.90;99.90;;;;;;5034219;28;20082;-61
2020/12/03 02:59:33;;;;;;;79.03;37.83;;;2.90;99.90;;;;;;5033358;28;20075;-61
2020/12/03 03:01:59;;;;;;;77.63;38.30;;;2.90;99.90;;;;;;5031524;28;20029;-61
2020/12/03 03:04:25;;;;;;;78.20;34.85;;;2.90;99.90;;;;;;5034524;28;20029;-61
2020/12/03 03:06:53;;;;;;;79.10;36.90;;;2.90;99.90;;;;;;5032742;28;20021;-61
2020/12/03 03:09:20;;;;;;;76.78;36.35;;;3.00;99.90;;;;;;5035542;28;20033;-61
2020/12/03 03:11:46;;;;;;;79.40;36.70;;;2.90;99.90;;;;;;5033311;28;20033;-61
2020/12/03 03:14:12;;;;;;;87.82;39.85;;;2.90;99.90;;;;;;5031616;28;20588;-61
2020/12/03 03:16:38;;;;;;;80.47;39.15;;;2.90;99.90;;;;;;5034474;28;20031;-61
2020/12/03 03:19:04;;;;;;;90.38;40.95;;;2.90;99.90;;;;;;5035652;28;20416;-61
2020/12/03 03:21:31;;;;;;;86.93;39.00;;;2.90;99.90;;;;;;5030450;28;20033;-61
2020/12/03 03:23:57;;;;;;;79.65;37.33;;;2.90;99.90;;;;;;5034119;28;20116;-61
2020/12/03 03:26:23;;;;;;;80.68;38.85;;;2.90;99.90;;;;;;5018050;28;20032;-62
2020/12/03 03:28:49;;;;;;;86.57;39.75;;;2.90;99.90;;;;;;5028093;28;20037;-61
2020/12/03 03:31:17;;;;;;;87.68;40.55;;;2.90;99.90;;;;;;5034237;28;20029;-61
2020/12/03 03:33:42;;;;;;;77.07;36.78;;;2.90;99.90;;;;;;5014614;28;20240;-61
2020/12/03 03:36:08;;;;;;;84.25;39.53;;;2.90;99.90;;;;;;5035180;28;20088;-61
2020/12/03 03:38:34;;;;;;;76.63;37.38;;;3.00;99.90;;;;;;5034058;28;20041;-61
2020/12/03 03:41:00;;;;;;;72.60;35.72;;;2.90;99.90;;;;;;5031993;28;20128;-61
2020/12/03 03:43:26;;;;;;;82.70;38.92;;;2.90;99.90;;;;;;5030230;28;20200;-61
2020/12/03 03:45:52;;;;;;;79.45;36.42;;;3.00;99.90;;;;;;5035744;28;20032;-61
2020/12/03 03:48:18;;;;;;;79.57;36.70;;;3.00;99.90;;;;;;5032874;28;20065;-61
2020/12/03 03:50:44;;;;;;;88.72;38.50;;;3.00;99.90;;;;;;5034009;28;20041;-61
2020/12/03 03:53:10;;;;;;;91.97;41.45;;;2.90;99.90;;;;;;5032733;28;20036;-62
2020/12/03 03:55:36;;;;;;;83.30;39.00;;;2.90;99.90;;;;;;5027054;28;20033;-61
2020/12/03 03:58:07;;;;;;;84.13;41.05;;;3.00;99.90;;;;;;5033093;28;20029;-61
2020/12/03 04:00:38;;;;;;;89.00;41.80;;;3.00;99.90;;;;;;5035459;28;20478;-61
2020/12/03 04:03:04;;;;;;;80.03;36.88;;;3.00;99.90;;;;;;5032104;28;20027;-61
2020/12/03 04:05:30;;;;;;;84.28;41.70;;;2.90;99.90;;;;;;5034009;28;20041;-61
2020/12/03 04:07:56;;;;;;;79.55;37.58;;;3.00;99.90;;;;;;5032398;28;20029;-61
2020/12/03 04:10:25;;;;;;;85.82;41.40;;;3.00;99.90;;;;;;5034200;28;20099;-61
2020/12/03 04:12:51;;;;;;;82.53;39.65;;;2.90;99.90;;;;;;5033729;28;20040;-61
2020/12/03 04:15:17;;;;;;;81.90;38.90;;;2.90;99.90;;;;;;5034318;28;20262;-61
2020/12/03 04:17:43;;;;;;;82.45;40.67;;;2.90;99.90;;;;;;5034953;28;20556;-61
2020/12/03 04:20:14;;;;;;;88.53;41.55;;;2.90;99.90;;;;;;5033264;28;20489;-62
2020/12/03 04:22:40;;;;;;;82.93;36.80;;;2.90;99.90;;;;;;5034698;28;20029;-61
2020/12/03 04:25:06;;;;;;;83.07;38.17;;;2.90;99.90;;;;;;5029939;28;20379;-61
2020/12/03 04:27:32;;;;;;;83.57;39.95;;;2.90;99.90;;;;;;5033820;28;20036;-61
2020/12/03 04:29:57;;;;;;;85.55;39.90;;;2.90;99.90;;;;;;5037553;28;20048;-61
2020/12/03 04:32:23;;;;;;;84.53;42.13;;;2.90;99.90;;;;;;5037401;28;20527;-61
2020/12/03 04:34:49;;;;;;;91.28;40.55;;;2.90;99.90;;;;;;5036859;28;20033;-61
2020/12/03 04:37:15;;;;;;;80.38;38.17;;;2.90;99.90;;;;;;5010094;28;20060;-61
2020/12/03 04:39:41;;;;;;;90.68;44.25;;;2.90;99.90;;;;;;5034609;28;20106;-61
2020/12/03 04:42:26;;;;;;;79.22;37.38;;;2.90;99.90;;;;;;5019395;28;20289;-62
2020/12/03 04:44:57;;;;;;;88.88;40.30;;;2.90;99.90;;;;;;5034331;28;20142;-61
2020/12/03 04:47:49;;;;;;;79.95;38.38;;;2.90;99.90;;;;;;5036020;28;20036;-61
2020/12/03 04:50:42;;;;;;;80.57;37.45;;;2.90;99.90;;;;;;5035390;28;20055;-61
2020/12/03 04:53:31;;;;;;;75.93;38.75;;;2.90;99.90;;;;;;5034067;28;20500;-61
2020/12/03 04:56:05;;;;;;;81.07;38.83;;;2.90;99.90;;;;;;5003558;28;20070;-61
2020/12/03 04:59:08;;;;;;;82.43;38.63;;;2.90;99.90;;;;;;5030396;28;20029;-61
2020/12/03 05:02:10;;;;;;;76.05;35.38;;;2.90;99.90;;;;;;5024431;28;20468;-61
2020/12/03 05:04:53;;;;;;;77.97;38.55;;;2.90;99.90;;;;;;5033216;28;20021;-61
2020/12/03 05:07:25;;;;;;;80.28;40.30;;;2.90;99.90;;;;;;5001838;28;20128;-62
2020/12/03 05:10:22;;;;;;;82.15;39.60;;;2.90;99.90;;;;;;5032389;28;20119;-69
2020/12/03 05:12:48;;;;;;;75.85;38.70;;;2.90;99.90;;;;;;5027075;28;20048;-64
2020/12/03 05:15:23;;;;;;;86.95;41.10;;;2.90;99.90;;;;;;5033116;28;20065;-65
2020/12/03 05:17:59;;;;;;;79.03;39.90;;;2.90;99.90;;;;;;5028819;28;20034;-65
2020/12/03 05:20:36;;;;;;;80.13;39.33;;;2.90;99.90;;;;;;5027297;28;20062;-65
2020/12/03 05:23:10;;;;;;;87.15;41.03;;;2.90;99.90;;;;;;5033803;28;20033;-65
2020/12/03 05:25:36;;;;;;;81.78;39.50;;;2.80;99.90;;;;;;5034087;28;20391;-65
2020/12/03 05:28:21;;;;;;;80.57;38.00;;;2.80;99.90;;;;;;5035070;28;20033;-65
2020/12/03 05:30:48;;;;;;;84.43;39.33;;;2.90;99.90;;;;;;5017664;28;20090;-65
2020/12/03 05:33:14;;;;;;;88.28;42.13;;;2.90;99.90;;;;;;5023218;28;21829;-65
2020/12/03 05:35:41;;;;;;;78.32;38.65;;;2.90;99.90;;;;;;5030950;28;20528;-64
2020/12/03 05:38:24;;;;;;;86.05;39.47;;;2.80;99.90;;;;;;5033724;28;20049;-64
2020/12/03 05:41:01;;;;;;;81.00;38.17;;;2.80;99.90;;;;;;5031575;28;20097;-65
2020/12/03 05:43:28;;;;;;;77.47;39.55;;;2.80;99.90;;;;;;5026942;28;20104;-65
2020/12/03 05:45:55;;;;;;;79.05;37.72;;;2.80;99.90;;;;;;5033434;28;20067;-65
2020/12/03 05:48:21;;;;;;;81.15;37.85;;;2.80;99.90;;;;;;5033682;28;20033;-65
2020/12/03 05:50:47;;;;;;;81.35;36.55;;;2.80;99.90;;;;;;5035253;28;20040;-65
2020/12/03 05:53:17;;;;;;;78.10;37.40;;;2.80;99.90;;;;;;5031355;28;20462;-65
2020/12/03 05:55:45;;;;;;;74.80;36.55;;;2.80;99.90;;;;;;5035082;28;20028;-65
2020/12/03 05:58:16;;;;;;;77.07;38.50;;;2.80;99.90;;;;;;5032204;28;20339;-65
2020/12/03 06:00:43;;;;;;;76.82;36.38;;;2.80;99.90;;;;;;5033816;28;20037;-65
2020/12/03 06:03:50;;;;;;;79.82;37.67;;;2.80;99.90;;;;;;5026146;28;20493;-65
2020/12/03 06:06:31;;;;;;;71.55;35.38;;;2.80;99.90;;;;;;4964220;28;20030;-65
2020/12/03 06:09:26;;;;;;;70.60;35.83;;;2.80;99.90;;;;;;5021937;28;20045;-65
2020/12/03 06:12:27;;;;;;;74.78;34.85;;;2.80;99.90;;;;;;5036085;28;20031;-65
2020/12/03 06:15:12;;;;;;;78.60;35.03;;;2.80;99.90;;;;;;5031862;28;20026;-65
2020/12/03 06:18:15;;;;;;;80.07;38.22;;;2.80;99.90;;;;;;5031902;28;20392;-65
2020/12/03 06:21:05;;;;;;;75.82;38.35;;;2.70;99.90;;;;;;5035535;28;20132;-65
2020/12/03 06:23:31;;;;;;;;;;;2.70;99.90;;;;;;5027590;28;20032;-64
2020/12/03 06:26:19;;;;;;;77.97;37.45;;;2.70;99.90;;;;;;5037457;28;19952;-65
2020/12/03 06:29:05;;;;;;;73.32;35.22;;;2.70;99.90;;;;;;5035918;28;20057;-65
2020/12/03 06:31:31;;;;;;;66.57;33.97;;;2.70;99.90;;;;;;5037008;28;20018;-65
2020/12/03 06:34:24;;;;;;;78.80;35.92;;;2.80;99.90;;;;;;5035660;28;20048;-65
2020/12/03 06:36:57;;;;;;;77.88;35.40;;;2.70;99.90;;;;;;5010107;28;20067;-65
2020/12/03 06:39:41;;;;;;;79.18;39.30;;;2.70;99.90;;;;;;5038160;28;20111;-65
2020/12/03 06:42:09;;;;;;;77.82;34.80;;;2.70;99.90;;;;;;5037948;28;20060;-64
2020/12/03 06:44:58;;;;;;;83.75;37.30;;;2.70;99.90;;;;;;5036866;28;20146;-64
2020/12/03 06:47:39;;;;;;;78.55;37.95;;;2.70;99.90;;;;;;5038382;28;20033;-64
2020/12/03 06:50:23;;;;;;;74.25;36.20;;;2.70;99.90;;;;;;5037964;28;20099;-64
2020/12/03 06:53:00;;;;;;;72.65;37.35;;;2.70;99.90;;;;;;5036208;28;20063;-65
2020/12/03 06:55:56;;;;;;;75.85;36.90;;;2.70;99.90;;;;;;5037434;28;20032;-64
2020/12/03 06:58:48;;;;;;;79.50;37.50;;;2.70;99.90;;;;;;5018189;28;20370;-64
2020/12/03 07:01:51;;;;;;;74.85;36.13;;;2.60;99.90;;;;;;5008199;28;20052;-64
2020/12/03 07:04:50;;;;;;;70.90;34.22;;;2.70;99.90;;;;;;5036484;28;20037;-64
2020/12/03 07:07:35;;;;;;;77.07;36.23;;;2.70;99.90;;;;;;5036015;28;20026;-65
2020/12/03 07:10:27;;;;;;;69.90;36.05;;;2.70;99.90;;;;;;5035480;28;20036;-64
2020/12/03 07:13:23;;;;;;;80.18;38.05;;;2.60;99.90;;;;;;5028543;28;20042;-64
2020/12/03 07:16:37;;;;;;;76.53;36.65;;;2.70;99.90;;;;;;5037908;28;20037;-65
2020/12/03 07:19:21;;;;;;;70.97;34.92;;;2.60;99.90;;;;;;5036879;28;20024;-64
2020/12/03 07:22:25;;;;;;;74.93;36.15;;;2.60;99.90;;;;;;5037565;28;20027;-64
2020/12/03 07:24:53;;;;;;;73.65;35.30;;;2.60;99.90;;;;;;5036081;28;20112;-64
2020/12/03 07:27:38;;;;;;;78.65;37.70;;;2.60;99.90;;;;;;5037022;28;20029;-65
2020/12/03 07:30:12;;;;;;;73.75;34.70;;;2.70;99.90;;;;;;5036700;28;20025;-65
2020/12/03 07:32:47;;;;;;;69.78;32.13;;;2.60;99.90;;;;;;5030769;28;20675;-65
2020/12/03 07:35:35;;;;;;;72.68;34.40;;;2.60;99.90;;;;;;5034086;28;20974;-64
2020/12/03 07:38:25;;;;;;;74.40;37.42;;;2.60;99.90;;;;;;5028571;28;20198;-64
2020/12/03 07:40:56;;;;;;;72.13;36.50;;;2.70;99.90;;;;;;5029844;28;20087;-64
2020/12/03 07:43:26;;;;;;;77.82;36.28;;;2.60;99.90;;;;;;5029215;28;20131;-65
2020/12/03 07:45:53;;;;;;;75.20;35.63;;;2.60;99.90;;;;;;5033904;28;20037;-64
2020/12/03 07:48:41;;;;;;;67.25;35.53;;;2.70;99.90;;;;;;5032655;28;20120;-64
2020/12/03 07:51:09;;;;;;;73.50;35.80;;;2.70;99.90;;;;;;5032652;28;20273;-64
2020/12/03 07:53:36;;;;;;;72.05;34.65;;;2.70;99.90;;;;;;5030532;28;20076;-65
2020/12/03 07:56:26;;;;;;;69.70;35.88;;;2.70;99.90;;;;;;5035164;28;20549;-64
2020/12/03 07:58:52;;;;;;;75.63;35.47;;;2.60;99.90;;;;;;5035593;28;20075;-65
2020/12/03 08:01:21;;;;;;;71.80;35.25;;;2.60;99.90;;;;;;5034891;28;20508;-65
2020/12/03 08:03:48;;;;;;;71.43;34.97;;;2.60;99.90;;;;;;5034353;28;20579;-65
2020/12/03 08:06:21;;;;;;;69.40;35.72;;;2.70;99.90;;;;;;5035974;28;20029;-65
2020/12/03 08:08:50;;;;;;;71.85;35.25;;;2.70;99.90;;;;;;5036152;28;20084;-64
2020/12/03 08:11:34;;;;;;;73.60;34.72;;;2.60;99.90;;;;;;5036913;28;20395;-64
2020/12/03 08:14:00;;;;;;;71.15;36.60;;;2.60;99.90;;;;;;5034454;28;20060;-65
2020/12/03 08:16:42;;;;;;;63.28;34.50;;;2.60;99.90;;;;;;5035648;28;20567;-64
2020/12/03 08:19:26;;;;;;;70.32;35.42;;;2.60;99.90;;;;;;5035179;28;20048;-66
2020/12/03 08:21:53;;;;;;;69.10;33.40;;;2.60;99.90;;;;;;5007355;28;20032;-65
2020/12/03 08:24:31;;;;;;;64.55;33.35;;;2.60;99.90;;;;;;5033123;28;20041;-64
2020/12/03 08:27:01;;;;;;;65.35;31.73;;;2.70;99.90;;;;;;5035663;28;20879;-65
2020/12/03 08:29:36;;;;;;;68.32;33.78;;;2.60;99.90;;;;;;5036244;28;20027;-64
2020/12/03 08:32:02;;;;;;;65.55;31.95;;;2.60;99.90;;;;;;5035955;28;20128;-65
2020/12/03 08:34:35;;;;;;;69.07;34.83;;;2.60;99.90;;;;;;5033246;28;20086;-64
2020/12/03 08:37:02;;;;;;;66.60;34.15;;;2.60;99.90;;;;;;5034170;28;20073;-65
2020/12/03 08:39:30;;;;;;;63.72;32.47;;;2.60;99.90;;;;;;5036268;28;20033;-64
2020/12/03 08:41:58;;;;;;;71.35;32.90;;;2.60;99.90;;;;;;5035606;28;20531;-65
2020/12/03 08:44:24;;;;;;;69.35;35.67;;;2.60;99.90;;;;;;5035497;28;20443;-64
2020/12/03 08:46:53;;;;;;;70.57;34.10;;;2.60;99.90;;;;;;5036605;28;20527;-65
2020/12/03 08:49:23;;;;;;;68.70;34.70;;;2.60;99.90;;;;;;5036532;28;20145;-64
2020/12/03 08:51:51;;;;;;;67.32;32.90;;;2.60;99.90;;;;;;5035283;28;20036;-64
2020/12/03 08:54:29;;;;;;;66.13;35.45;;;2.60;99.90;;;;;;5034117;28;20115;-64
2020/12/03 08:57:02;;;;;;;70.00;33.38;;;2.70;99.90;;;;;;5013687;28;20032;-65
2020/12/03 08:59:33;;;;;;;71.10;36.55;;;2.70;99.90;;;;;;5036266;28;20048;-64
2020/12/03 09:02:07;;;;;;;66.03;32.25;;;2.60;99.90;;;;;;5036337;28;20025;-65
2020/12/03 09:04:36;;;;;;;70.78;34.17;;;2.60;99.90;;;;;;5017776;28;20025;-65
2020/12/03 09:07:06;;;;;;;71.75;36.67;;;2.60;99.90;;;;;;5036569;28;20731;-65
2020/12/03 09:09:35;;;;;;;76.03;36.92;;;2.50;99.90;;;;;;5032676;28;20486;-64
2020/12/03 09:12:01;;;;;;;77.20;37.13;;;2.50;99.90;;;;;;5036091;28;20434;-64
2020/12/03 09:14:30;;;;;;;72.72;36.58;;;2.50;99.90;;;;;;5037968;28;20037;-64
2020/12/03 09:17:04;;;;;;;74.07;36.47;;;2.40;99.90;;;;;;5039146;28;20472;-64
2020/12/03 09:19:30;;;;;;;72.70;36.67;;;2.50;99.90;;;;;;5022272;28;20048;-64
2020/12/03 09:21:57;;;;;;;69.15;35.53;;;2.40;99.90;;;;;;5039504;28;20029;-65
2020/12/03 09:24:25;;;;;;;75.50;37.47;;;2.40;99.90;;;;;;5038460;28;20083;-64
2020/12/03 09:26:55;;;;;;;73.93;35.83;;;2.50;99.90;;;;;;5039151;28;20029;-64
2020/12/03 09:29:21;;;;;;;88.18;40.25;;;2.50;99.90;;;;;;5013326;28;20376;-64
2020/12/03 09:31:56;;;;;;;75.55;35.88;;;2.50;99.90;;;;;;5038718;28;20037;-64
2020/12/03 09:34:22;;;;;;;79.82;37.20;;;2.50;99.90;;;;;;5012868;28;20649;-64
2020/12/03 09:36:48;;;;;;;74.18;34.80;;;2.50;99.90;;;;;;5039319;28;20523;-64
2020/12/03 09:39:14;;;;;;;75.60;36.92;;;2.40;99.90;;;;;;5038989;28;20463;-65
2020/12/03 09:41:42;;;;;;;73.80;36.83;;;2.50;99.90;;;;;;5038256;28;20033;-64
2020/12/03 09:44:14;;;;;;;69.47;37.35;;;2.50;99.90;;;;;;5037598;28;20044;-65
2020/12/03 09:46:44;;;;;;;76.90;38.35;;;2.50;99.90;;;;;;5039529;28;20777;-65
2020/12/03 09:49:12;;;;;;;75.70;34.67;;;2.50;99.90;;;;;;5039697;28;20048;-64
2020/12/03 09:51:39;;;;;;;71.93;35.05;;;2.50;99.90;;;;;;5020388;28;20427;-64
2020/12/03 09:54:04;;;;;;;68.85;34.28;;;2.50;99.90;;;;;;5020465;28;20045;-65
2020/12/03 09:56:37;;;;;;;70.72;35.35;;;2.60;99.90;;;;;;5039403;28;20029;-64
2020/12/03 09:59:04;;;;;;;67.40;33.50;;;2.50;99.90;;;;;;5037662;28;20076;-65
2020/12/03 10:02:07;;;;;;;67.07;35.03;;;2.50;99.90;;;;;;5037979;28;20108;-64
2020/12/03 10:04:53;;;;;;;66.55;33.55;;;2.50;99.90;;;;;;5035550;28;20029;-65
2020/12/03 10:07:48;;;;;;;65.53;33.95;;;2.60;99.90;;;;;;5039446;28;20025;-64
2020/12/03 10:10:45;;;;;;;70.10;33.53;;;2.60;99.90;;;;;;5038664;28;20025;-64
2020/12/03 10:13:27;;;;;;;66.28;33.60;;;2.60;99.90;;;;;;5036155;28;20060;-64
2020/12/03 10:16:19;;;;;;;61.25;31.10;;;2.60;99.90;;;;;;5037601;28;20086;-65
2020/12/03 10:19:02;;;;;;;68.38;33.05;;;2.50;99.90;;;;;;5038291;28;20082;-65
2020/12/03 10:21:41;;;;;;;65.40;33.55;;;2.60;99.90;;;;;;5039270;28;20037;-64
2020/12/03 10:24:35;;;;;;;67.40;34.75;;;2.60;99.90;;;;;;5036299;28;20029;-64
2020/12/03 10:27:28;;;;;;;65.28;32.58;;;2.50;99.90;;;;;;5038636;28;20134;-64
2020/12/03 10:30:07;;;;;;;64.53;32.55;;;2.50;99.90;;;;;;5038465;28;20396;-64
2020/12/03 10:32:39;;;;;;;64.32;31.70;;;2.60;99.90;;;;;;5037533;28;20025;-64
2020/12/03 10:35:05;;;;;;;66.00;31.52;;;2.60;99.90;;;;;;5035783;28;20431;-65
2020/12/03 10:37:44;;;;;;;68.40;33.70;;;2.60;99.90;;;;;;5036858;28;20132;-64
2020/12/03 10:40:18;;;;;;;66.97;33.85;;;2.60;99.90;;;;;;5038635;28;20094;-64
2020/12/03 10:42:51;;;;;;;60.80;31.40;;;2.60;99.90;;;;;;5037559;28;20033;-64
2020/12/03 10:45:24;;;;;;;73.65;36.58;;;2.60;99.90;;;;;;5035784;28;20110;-64
2020/12/03 10:47:58;;;;;;;65.80;32.50;;;2.60;99.90;;;;;;5038200;28;20131;-64
2020/12/03 10:50:46;;;;;;;65.10;32.55;;;2.60;99.90;;;;;;5036925;28;20411;-65
2020/12/03 10:53:15;;;;;;;66.45;32.45;;;2.60;99.90;;;;;;5035889;28;20112;-64
2020/12/03 10:55:42;;;;;;;70.25;33.83;;;2.60;99.90;;;;;;5037820;28;20033;-64
2020/12/03 10:58:13;;;;;;;67.15;34.50;;;2.60;99.90;;;;;;5036923;28;20560;-64
2020/12/03 11:00:42;;;;;;;61.72;30.70;;;2.60;99.90;;;;;;5037499;28;20044;-64
2020/12/03 11:03:13;;;;;;;66.07;32.97;;;2.60;99.90;;;;;;5036475;28;20519;-65
2020/12/03 11:05:45;;;;;;;68.30;32.80;;;2.70;99.90;;;;;;5037984;28;20029;-64
2020/12/03 11:08:11;;;;;;;74.63;34.90;;;2.70;99.90;;;;;;5036416;28;20111;-64
2020/12/03 11:10:40;;;;;;;73.05;35.05;;;2.70;99.90;;;;;;5038252;28;20143;-64
2020/12/03 11:13:07;;;;;;;69.88;34.65;;;2.60;99.90;;;;;;5035833;28;20021;-65
2020/12/03 11:15:33;;;;;;;64.22;34.45;;;2.70;99.90;;;;;;5038031;28;20036;-65
2020/12/03 11:18:02;;;;;;;71.00;33.40;;;2.70;99.90;;;;;;5037232;28;20033;-65
2020/12/03 11:20:35;;;;;;;67.57;32.88;;;2.70;99.90;;;;;;5037581;28;20040;-65
2020/12/03 11:23:06;;;;;;;65.28;32.20;;;2.70;99.90;;;;;;5034844;28;20029;-64
2020/12/03 11:25:33;;;;;;;69.80;33.72;;;2.70;99.90;;;;;;5035988;28;20029;-65
2020/12/03 11:28:27;;;;;;;67.80;32.63;;;2.70;99.90;;;;;;5037191;28;20362;-64
2020/12/03 11:31:01;;;;;;;68.43;33.80;;;2.70;99.90;;;;;;5038308;28;20058;-64
2020/12/03 11:33:29;;;;;;;73.20;34.20;;;2.70;99.90;;;;;;5035671;28;20044;-64
2020/12/03 11:36:19;;;;;;;67.05;33.60;;;2.70;99.90;;;;;;5037016;28;20041;-65
2020/12/03 11:38:53;;;;;;;68.35;32.45;;;2.70;99.90;;;;;;5033602;28;20041;-64
2020/12/03 11:41:58;;;;;;;66.40;32.33;;;2.70;99.90;;;;;;5036426;28;20079;-64
2020/12/03 11:49:30;;;;;;;75.57;34.20;;;2.70;99.90;;;;;;5036533;28;20047;-64
2020/12/03 11:52:09;;;;;;;67.13;31.38;;;2.70;99.90;;;;;;5036117;28;20238;-65
2020/12/03 11:54:35;;;;;;;72.88;33.47;;;2.70;99.90;;;;;;5018416;28;20036;-65
2020/12/03 11:57:01;;;;;;;72.03;33.70;;;2.70;99.90;;;;;;5037775;28;20028;-64
2020/12/03 11:59:32;;;;;;;68.97;32.70;;;2.70;99.90;;;;;;5036438;28;20438;-65
2020/12/03 12:02:03;;;;;;;70.32;34.00;;;2.70;99.90;;;;;;5036080;28;20033;-65
2020/12/03 12:07:23;;;;;;;64.95;31.45;;;2.80;99.90;;;;;;5036872;28;20021;-64
2020/12/03 12:12:32;;;;;;;67.30;33.90;;;2.80;99.90;;;;;;5037549;28;20119;-64
2020/12/03 12:14:57;;;;;;;66.55;31.67;;;2.80;99.90;;;;;;5035185;28;20517;-64
2020/12/03 12:17:23;;;;;;;65.18;30.70;;;2.80;99.90;;;;;;5036401;28;20106;-64
2020/12/03 12:19:53;;;;;;;69.72;33.10;;;2.80;99.90;;;;;;5036451;28;20135;-64
2020/12/03 12:22:19;;;;;;;61.78;31.08;;;2.80;99.90;;;;;;5036973;28;20029;-65
2020/12/03 12:24:45;;;;;;;71.15;31.80;;;2.80;99.90;;;;;;5011131;28;20037;-64
2020/12/03 12:27:11;;;;;;;68.82;32.17;;;2.80;99.90;;;;;;5036371;28;20032;-64
2020/12/03 12:29:38;;;;;;;68.30;31.83;;;2.80;99.90;;;;;;5036914;28;20539;-64
2020/12/03 12:32:04;;;;;;;68.78;31.90;;;2.80;99.90;;;;;;5034956;28;20633;-64
2020/12/03 12:34:31;;;;;;;70.70;31.40;;;2.80;99.90;;;;;;5035293;28;20033;-65
2020/12/03 12:36:57;;;;;;;63.05;32.47;;;2.80;99.90;;;;;;5036171;28;20568;-64
2020/12/03 12:39:24;;;;;;;62.92;32.30;;;2.80;99.90;;;;;;5034020;28;20048;-65
2020/12/03 12:42:00;;;;;;;62.17;30.48;;;2.80;99.90;;;;;;5035895;28;20041;-65
2020/12/03 12:44:26;;;;;;;76.05;33.42;;;2.80;99.90;;;;;;5034973;28;20050;-64
2020/12/03 12:46:57;;;;;;;60.40;31.17;;;2.80;99.90;;;;;;5018881;28;20033;-64
2020/12/03 12:49:24;;;;;;;57.25;28.55;;;2.80;99.90;;;;;;5039563;28;20033;-65
2020/12/03 12:51:51;;;;;;;60.03;29.08;;;2.90;99.90;;;;;;5040216;28;20017;-65
2020/12/03 12:54:18;;;;;;;69.57;32.85;;;2.90;99.90;;;;;;5039819;28;20404;-65
2020/12/03 12:56:46;;;;;;;59.03;29.10;;;2.90;99.90;;;;;;5038029;28;20029;-64
2020/12/03 12:59:13;;;;;;;63.20;30.83;;;2.90;99.90;;;;;;5039916;28;20124;-65
2020/12/03 13:01:47;;;;;;;60.17;30.27;;;2.80;99.90;;;;;;5039206;28;20029;-65
2020/12/03 13:04:17;;;;;;;57.60;28.45;;;2.80;99.90;;;;;;5037507;28;20474;-65
2020/12/03 13:06:43;;;;;;;63.67;30.23;;;2.80;99.90;;;;;;5012589;28;20021;-65
2020/12/03 13:09:10;;;;;;;62.13;30.80;;;2.90;99.90;;;;;;5039808;28;20397;-64
2020/12/03 13:11:37;;;;;;;56.65;28.77;;;2.80;99.90;;;;;;5039350;28;20057;-64
2020/12/03 13:14:10;;;;;;;54.20;27.83;;;2.80;99.90;;;;;;5039200;28;20458;-65
2020/12/03 13:16:37;;;;;;;61.13;30.70;;;2.80;99.90;;;;;;5021816;28;20029;-64